Time;durP1;ratioP1;P1;durP2;ratioP2;P2;SDS_P1;SDS_P2;PMS_P1;PMS_P2;Temp;Humidity;BMP_temperature;BMP_pressure;BME280_temperature;BME280_humidity;BME280_pressure;Samples;Min_cycle;Max_cycle;Signal;HPM_P1;HPM_P2
2021/12/05 00:21:05;;;;;;;0.40;0.30;;;;;;;22.15;4.18;100699.63;5114652;27;20040;-71
2021/12/05 00:23:30;;;;;;;0.40;0.40;;;;;;;22.11;4.16;100704.78;5113924;28;20039;-71
2021/12/05 00:25:59;;;;;;;0.40;0.40;;;;;;;22.09;4.31;100717.81;5114331;28;20024;-71
2021/12/05 00:31:18;;;;;;;0.30;0.30;;;;;;;22.10;4.13;100714.00;5114583;28;20023;-71
2021/12/05 01:00:02;;;;;;;0.40;0.40;;;;;;;22.13;3.90;100724.38;5070998;28;20380;-70
2021/12/05 01:02:42;;;;;;;0.35;0.35;;;;;;;22.10;4.04;100724.09;5071011;28;20138;-71
2021/12/05 01:08:17;;;;;;;0.40;0.40;;;;;;;22.11;4.03;100725.72;5071093;28;20425;-71
2021/12/05 01:15:49;;;;;;;0.45;0.40;;;;;;;22.12;4.00;100732.81;5025944;28;20133;-70
2021/12/05 01:18:17;;;;;;;0.40;0.40;;;;;;;22.12;4.00;100735.53;5030658;28;20052;-70
2021/12/05 01:20:46;;;;;;;0.30;0.30;;;;;;;22.08;4.22;100737.13;5031231;28;20048;-70
2021/12/05 01:23:23;;;;;;;0.40;0.40;;;;;;;22.06;4.11;100742.81;5030997;28;20361;-70
2021/12/05 01:26:01;;;;;;;0.32;0.32;;;;;;;22.12;4.03;100744.50;5032394;28;20079;-70
2021/12/05 01:29:01;;;;;;;0.40;0.40;;;;;;;22.08;4.07;100753.47;5019831;28;20033;-71
2021/12/05 01:34:01;;;;;;;0.40;0.40;;;;;;;22.10;4.03;100754.03;5034601;28;20029;-71
2021/12/05 01:36:39;;;;;;;0.40;0.40;;;;;;;22.11;4.02;100753.75;5047945;28;20037;-70
2021/12/05 01:49:59;;;;;;;0.40;0.40;;;;;;;22.08;3.96;100769.78;5054462;28;20116;-70
2021/12/05 01:55:42;;;;;;;0.65;0.50;;;;;;;22.06;4.11;100772.75;5117061;28;20062;-71
2021/12/05 02:30:02;;;;;;;0.50;0.40;;;;;;;22.11;4.15;100785.59;5135893;27;20118;-70
2021/12/05 02:38:04;;;;;;;0.40;0.40;;;;;;;22.08;3.95;100797.00;5136813;27;20092;-70
2021/12/05 02:41:08;;;;;;;0.35;0.35;;;;;;;22.08;3.95;100802.44;5139773;27;20039;-70
2021/12/05 02:43:16;;;;;;;0.40;0.40;;;;;;;22.06;3.95;100805.41;5128582;27;20043;-70
2021/12/05 02:45:45;;;;;;;0.30;0.30;;;;;;;22.04;4.11;100810.31;5136723;27;20035;-71
2021/12/05 02:48:10;;;;;;;0.40;0.40;;;;;;;22.04;3.99;100818.47;5136715;27;20034;-70
2021/12/05 02:50:36;;;;;;;0.30;0.30;;;;;;;22.08;4.04;100821.50;5136274;27;20023;-70
2021/12/05 02:53:11;;;;;;;0.30;0.30;;;;;;;22.02;3.99;100820.59;5136679;27;20048;-71
2021/12/05 02:55:40;;;;;;;0.85;0.50;;;;;;;22.03;4.00;100821.44;5136567;27;20027;-70
2021/12/05 02:58:16;;;;;;;0.30;0.30;;;;;;;22.06;3.99;100826.34;5136459;27;20031;-70
2021/12/05 03:00:54;;;;;;;0.30;0.30;;;;;;;22.02;3.99;100826.03;5136715;27;20102;-70
2021/12/05 03:03:21;;;;;;;0.35;0.35;;;;;;;22.07;3.95;100828.00;5136452;27;20031;-70
2021/12/05 03:05:52;;;;;;;0.28;0.28;;;;;;;22.04;3.92;100840.25;5136393;27;20019;-71
2021/12/05 03:08:18;;;;;;;0.30;0.30;;;;;;;22.03;3.96;100838.56;5136322;27;20031;-70
2021/12/05 03:10:43;;;;;;;0.38;0.38;;;;;;;22.03;3.97;100841.31;5136162;27;20373;-70
2021/12/05 03:13:09;;;;;;;0.40;0.40;;;;;;;22.01;3.97;100839.88;5136114;27;20034;-71
2021/12/05 03:15:34;;;;;;;0.43;0.43;;;;;;;22.05;3.85;100844.59;5124869;27;20023;-71
2021/12/05 03:18:00;;;;;;;0.30;0.30;;;;;;;22.04;3.72;100844.84;5097815;27;20056;-71
2021/12/05 03:20:25;;;;;;;0.30;0.30;;;;;;;22.03;3.84;100844.03;5060588;28;20371;-71
2021/12/05 03:22:51;;;;;;;0.30;0.30;;;;;;;22.04;3.83;100858.44;5110708;28;20032;-70
2021/12/05 03:25:16;;;;;;;0.30;0.30;;;;;;;22.02;3.89;100850.53;5094678;28;20024;-70
2021/12/05 03:27:42;;;;;;;0.40;0.40;;;;;;;22.01;3.47;100848.91;5094998;28;20107;-70
2021/12/05 03:30:09;;;;;;;0.40;0.40;;;;;;;22.03;3.85;100856.81;5094905;28;20535;-70
2021/12/05 03:32:35;;;;;;;0.28;0.28;;;;;;;22.04;3.76;100853.00;5094616;28;20520;-70
2021/12/05 03:35:00;;;;;;;0.50;0.40;;;;;;;22.04;3.78;100856.56;5094844;28;20028;-71
2021/12/05 03:37:26;;;;;;;0.40;0.40;;;;;;;22.05;3.77;100855.47;5094700;28;20031;-70
2021/12/05 03:39:51;;;;;;;0.35;0.35;;;;;;;22.03;3.82;100854.91;5094462;28;20024;-70
2021/12/05 03:42:16;;;;;;;0.32;0.30;;;;;;;22.04;3.84;100861.16;5094644;28;20020;-70
2021/12/05 03:44:42;;;;;;;0.52;0.40;;;;;;;22.05;3.73;100860.09;5076357;28;20394;-70
2021/12/05 03:47:07;;;;;;;0.80;0.50;;;;;;;22.03;3.78;100860.34;5094600;28;20028;-71
2021/12/05 03:49:33;;;;;;;0.40;0.40;;;;;;;22.04;3.77;100858.44;5094677;28;20020;-71
2021/12/05 03:52:02;;;;;;;0.32;0.32;;;;;;;22.04;3.72;100872.06;5094640;28;20020;-71
2021/12/05 03:54:27;;;;;;;0.30;0.30;;;;;;;22.04;3.74;100863.88;5094554;28;20114;-70
2021/12/05 03:56:53;;;;;;;0.50;0.40;;;;;;;22.01;3.71;100870.66;5094521;28;20089;-71
2021/12/05 03:59:18;;;;;;;0.40;0.40;;;;;;;22.04;3.80;100877.50;5094676;28;20074;-70
2021/12/05 04:01:44;;;;;;;0.68;0.40;;;;;;;22.02;3.76;100885.91;5094648;28;20382;-71
2021/12/05 04:04:10;;;;;;;0.32;0.32;;;;;;;22.04;3.71;100881.06;5094478;28;20050;-71
2021/12/05 04:06:36;;;;;;;0.30;0.30;;;;;;;22.03;3.72;100887.56;5094373;28;20039;-71
2021/12/05 04:09:07;;;;;;;0.30;0.30;;;;;;;21.98;3.74;100878.53;5094835;28;20028;-70
2021/12/05 04:11:37;;;;;;;0.40;0.40;;;;;;;22.00;3.71;100896.22;5094524;28;20081;-70
2021/12/05 04:14:07;;;;;;;0.40;0.40;;;;;;;22.03;3.67;100897.63;5094576;28;20032;-70
2021/12/05 04:16:33;;;;;;;0.40;0.40;;;;;;;22.01;3.62;100892.44;5104505;27;20051;-70
2021/12/05 04:18:59;;;;;;;0.40;0.40;;;;;;;22.01;3.64;100899.75;5137397;27;20506;-71
2021/12/05 04:21:25;;;;;;;0.40;0.40;;;;;;;22.02;3.73;100895.97;5137306;27;20039;-70
2021/12/05 04:23:50;;;;;;;0.50;0.43;;;;;;;22.00;3.77;100898.94;5134910;27;20038;-70
2021/12/05 04:26:16;;;;;;;0.30;0.30;;;;;;;22.00;3.70;100904.38;5134980;27;20019;-70
2021/12/05 04:28:42;;;;;;;0.40;0.40;;;;;;;22.00;3.69;100907.13;5134776;27;20106;-71
2021/12/05 04:31:10;;;;;;;0.35;0.35;;;;;;;21.98;3.74;100909.28;5134796;27;20445;-71
2021/12/05 04:33:36;;;;;;;0.30;0.30;;;;;;;21.98;3.61;100908.44;5135013;27;20023;-71
2021/12/05 04:36:05;;;;;;;0.40;0.40;;;;;;;22.01;3.76;100910.66;5135044;27;20027;-71
2021/12/05 04:38:31;;;;;;;0.47;0.47;;;;;;;21.98;3.72;100919.34;5134408;27;20038;-70
2021/12/05 04:40:56;;;;;;;0.40;0.40;;;;;;;21.96;3.69;100914.16;5134994;28;20056;-71
2021/12/05 04:43:22;;;;;;;0.40;0.40;;;;;;;21.97;3.67;100918.50;5134512;28;20088;-71
2021/12/05 04:45:47;;;;;;;0.50;0.40;;;;;;;21.99;3.67;100929.97;5134681;28;20027;-70
2021/12/05 04:48:12;;;;;;;0.40;0.35;;;;;;;21.99;3.97;100931.84;5134642;28;20092;-71
2021/12/05 04:50:38;;;;;;;0.40;0.40;;;;;;;21.98;3.67;100933.75;5134562;28;20030;-71
2021/12/05 04:53:04;;;;;;;0.35;0.35;;;;;;;21.97;3.60;100931.28;5134565;28;20028;-71
2021/12/05 04:55:30;;;;;;;0.43;0.43;;;;;;;21.97;3.60;100931.28;5134364;28;20031;-70
2021/12/05 04:57:55;;;;;;;0.30;0.30;;;;;;;22.00;3.64;100936.22;5134556;28;20030;-71
2021/12/05 05:00:20;;;;;;;0.40;0.40;;;;;;;21.98;3.61;100938.38;5134557;27;20027;-71
2021/12/05 05:02:46;;;;;;;0.30;0.30;;;;;;;21.93;3.73;100953.56;5138734;27;20055;-71
2021/12/05 05:05:12;;;;;;;0.47;0.47;;;;;;;21.98;3.63;100949.28;5138824;27;20020;-70
2021/12/05 05:07:39;;;;;;;0.50;0.50;;;;;;;21.98;3.57;100954.72;5138588;27;20027;-70
2021/12/05 05:10:08;;;;;;;0.30;0.30;;;;;;;21.93;3.61;100958.19;5138381;27;20369;-70
2021/12/05 05:12:33;;;;;;;0.35;0.30;;;;;;;21.96;3.63;100954.16;5138256;27;20544;-71
2021/12/05 05:14:58;;;;;;;0.40;0.40;;;;;;;21.93;3.65;100953.56;5138410;27;20075;-70
2021/12/05 05:17:25;;;;;;;0.43;0.30;;;;;;;21.96;3.67;100960.41;5138124;27;20104;-70
2021/12/05 05:19:55;;;;;;;0.35;0.30;;;;;;;21.99;3.61;100961.78;5138243;27;20100;-70
2021/12/05 05:46:21;;;;;;;0.52;0.40;;;;;;;21.93;3.63;100980.75;5074694;28;20085;-70
2021/12/05 05:51:32;;;;;;;0.20;0.20;;;;;;;21.93;3.52;100991.66;4995296;28;20129;-70
2021/12/05 05:53:57;;;;;;;0.30;0.30;;;;;;;21.92;3.58;100983.72;4994953;28;20038;-70
2021/12/05 05:56:26;;;;;;;0.40;0.40;;;;;;;21.92;3.33;101000.91;4994895;28;20045;-70
2021/12/05 05:59:07;;;;;;;0.40;0.40;;;;;;;21.93;3.47;100988.91;4994832;28;20109;-70
2021/12/05 06:02:01;;;;;;;0.30;0.30;;;;;;;21.91;3.53;100996.53;4994869;28;20089;-70
2021/12/05 06:04:18;;;;;;;0.40;0.40;;;;;;;21.90;3.61;101002.22;4995172;28;20074;-70
2021/12/05 06:06:43;;;;;;;0.40;0.40;;;;;;;21.92;3.47;101011.78;4994762;28;20054;-70
2021/12/05 06:09:09;;;;;;;0.57;0.40;;;;;;;21.96;3.58;101011.28;4994952;28;20141;-70
2021/12/05 06:11:35;;;;;;;0.30;0.30;;;;;;;21.91;3.54;101009.31;4994589;28;20525;-71
2021/12/05 06:14:00;;;;;;;0.38;0.38;;;;;;;21.92;3.37;101011.78;5013461;28;20041;-69
2021/12/05 06:16:26;;;;;;;0.50;0.40;;;;;;;21.92;3.59;101028.13;5049754;28;20077;-69
2021/12/05 06:18:51;;;;;;;0.50;0.50;;;;;;;21.89;3.52;101025.88;5053834;28;20028;-69
2021/12/05 06:21:17;;;;;;;0.32;0.32;;;;;;;21.93;3.59;101028.94;5053691;28;20450;-69
2021/12/05 06:23:42;;;;;;;0.52;0.47;;;;;;;21.91;3.51;101042.78;5053812;28;20029;-70
2021/12/05 06:26:09;;;;;;;0.50;0.50;;;;;;;21.92;3.52;101030.00;5053923;28;20040;-69
2021/12/05 06:28:44;;;;;;;0.50;0.50;;;;;;;21.92;3.61;101041.72;5104569;27;20476;-69
2021/12/05 06:47:12;;;;;;;0.47;0.47;;;;;;;21.91;3.45;101058.28;5093755;28;20050;-71
2021/12/05 06:49:39;;;;;;;0.22;0.22;;;;;;;21.97;3.40;101070.06;5093529;28;20051;-70
2021/12/05 06:52:06;;;;;;;0.65;0.50;;;;;;;21.91;3.57;101063.72;5059968;28;20028;-69
2021/12/05 06:54:32;;;;;;;0.47;0.47;;;;;;;21.90;3.65;101062.91;5094153;28;20040;-70
2021/12/05 06:56:57;;;;;;;0.38;0.38;;;;;;;21.92;3.47;101065.34;5093305;28;20378;-70
2021/12/05 06:59:23;;;;;;;0.40;0.40;;;;;;;21.88;3.47;101075.09;5093282;28;20131;-70
2021/12/05 07:01:48;;;;;;;0.40;0.40;;;;;;;21.91;3.56;101072.72;5093296;28;20024;-70
2021/12/05 07:04:37;;;;;;;0.30;0.30;;;;;;;21.91;3.65;101072.72;5093129;28;20032;-70
2021/12/05 07:06:59;;;;;;;0.40;0.40;;;;;;;21.89;3.59;101082.22;5093052;28;20046;-70
2021/12/05 07:09:26;;;;;;;0.50;0.50;;;;;;;21.91;3.51;101086.31;5093231;28;20442;-70
2021/12/05 07:12:21;;;;;;;0.30;0.30;;;;;;;21.90;3.41;101083.84;5093413;28;20412;-70
2021/12/05 07:14:59;;;;;;;0.52;0.43;;;;;;;21.92;3.40;101084.41;5156782;27;20130;-70
2021/12/05 07:20:14;;;;;;;0.40;0.40;;;;;;;21.90;3.46;101098.28;5157456;27;20468;-70
2021/12/05 07:23:17;;;;;;;0.50;0.43;;;;;;;21.87;3.46;101096.06;5156992;27;20034;-70
2021/12/05 07:26:04;;;;;;;0.40;0.40;;;;;;;21.90;3.37;101098.28;5156704;27;20027;-70
2021/12/05 07:42:18;;;;;;;0.50;0.47;;;;;;;21.88;3.39;101119.47;5174587;27;20481;-71
2021/12/05 07:44:44;;;;;;;0.30;0.30;;;;;;;21.86;3.41;101116.16;5175449;27;20033;-69
2021/12/05 07:47:09;;;;;;;0.40;0.40;;;;;;;21.89;3.33;101121.13;5175256;27;20027;-70
2021/12/05 07:49:35;;;;;;;0.38;0.38;;;;;;;21.85;3.40;101128.13;5165595;27;20025;-70
2021/12/05 07:52:01;;;;;;;0.40;0.30;;;;;;;21.85;3.28;101130.84;5166049;27;20023;-70
2021/12/05 08:00:17;;;;;;;0.50;0.47;;;;;;;21.88;3.39;101140.41;5072329;28;20047;-69
2021/12/05 08:16:34;;;;;;;0.28;0.28;;;;;;;21.90;3.44;101165.47;5035515;28;20049;-70
2021/12/05 08:18:59;;;;;;;0.32;0.32;;;;;;;21.91;3.43;101162.50;5031651;28;20029;-70
2021/12/05 08:21:25;;;;;;;0.40;0.40;;;;;;;21.86;3.45;101158.88;5031767;28;20037;-70
2021/12/05 08:23:50;;;;;;;0.57;0.40;;;;;;;21.90;3.43;101166.31;5015089;28;20029;-70
2021/12/05 08:26:19;;;;;;;0.60;0.47;;;;;;;21.88;3.41;101167.63;5031446;28;20044;-70
2021/12/05 08:36:55;;;;;;;0.57;0.57;;;;;;;21.85;3.41;101177.09;5059982;28;20040;-70
2021/12/05 09:22:39;;;;;;;0.40;0.40;;;;;;;21.89;3.46;101215.53;5134369;28;20045;-71
2021/12/05 10:11:34;;;;;;;0.43;0.43;;;;;;;21.83;3.61;101235.53;4963325;28;20043;-70
2021/12/05 10:38:28;;;;;;;4.35;0.73;;;;;;;21.82;3.71;101242.88;5014009;28;20030;-69
2021/12/05 10:41:05;;;;;;;0.40;0.40;;;;;;;21.80;3.86;101239.59;5013819;28;20041;-70
2021/12/05 10:43:31;;;;;;;0.30;0.30;;;;;;;21.79;3.77;101246.09;5033476;28;20037;-70
2021/12/05 10:46:07;;;;;;;0.40;0.40;;;;;;;21.79;3.77;101245.28;5033312;28;20056;-69
2021/12/05 10:48:35;;;;;;;0.30;0.30;;;;;;;21.78;3.84;101260.75;5033280;28;20159;-69
2021/12/05 10:51:12;;;;;;;0.55;0.55;;;;;;;21.84;3.80;101248.09;5033891;28;20049;-69
2021/12/05 10:53:41;;;;;;;0.47;0.40;;;;;;;21.84;3.66;101257.06;5097653;27;20131;-70
2021/12/05 10:56:17;;;;;;;0.50;0.50;;;;;;;21.83;3.86;101249.97;5136686;27;20019;-70
2021/12/05 10:58:57;;;;;;;0.40;0.40;;;;;;;21.81;3.87;101257.56;5135542;27;20031;-69
2021/12/05 11:01:34;;;;;;;0.50;0.50;;;;;;;21.87;3.88;101263.91;5136568;27;20037;-70
2021/12/05 11:04:21;;;;;;;0.50;0.50;;;;;;;21.90;3.81;101256.13;5136281;27;20469;-70
2021/12/05 11:06:50;;;;;;;0.73;0.65;;;;;;;21.83;3.88;101269.00;5136556;27;20047;-70
2021/12/05 11:09:35;;;;;;;0.30;0.30;;;;;;;21.84;3.94;101265.22;5135917;27;20023;-69
2021/12/05 11:12:08;;;;;;;0.47;0.45;;;;;;;21.82;3.81;101267.38;5136009;27;20051;-70
2021/12/05 11:14:46;;;;;;;0.50;0.40;;;;;;;21.79;3.90;101267.84;5118485;27;20035;-70
2021/12/05 11:17:13;;;;;;;0.40;0.40;;;;;;;21.81;3.73;101271.16;5152866;27;20415;-69
2021/12/05 11:19:58;;;;;;;0.40;0.40;;;;;;;21.81;3.79;101271.16;5156784;27;20022;-69
2021/12/05 11:22:42;;;;;;;0.52;0.40;;;;;;;21.86;3.85;101265.00;5156906;27;20083;-71
2021/12/05 11:25:12;;;;;;;0.40;0.40;;;;;;;21.83;3.92;101268.19;5156391;27;20025;-69
2021/12/05 11:27:44;;;;;;;0.40;0.40;;;;;;;21.82;3.90;101272.81;5156730;27;20023;-69
2021/12/05 11:30:13;;;;;;;0.38;0.38;;;;;;;21.82;3.93;101263.81;5157302;27;20022;-70
2021/12/05 11:33:19;;;;;;;0.30;0.30;;;;;;;21.91;3.97;101262.38;5156578;27;20031;-70
2021/12/05 11:35:52;;;;;;;0.47;0.47;;;;;;;21.86;3.83;101273.97;5156382;27;20027;-70
2021/12/05 11:38:22;;;;;;;0.40;0.40;;;;;;;21.83;3.77;101274.47;5156715;27;20043;-71
2021/12/05 11:40:52;;;;;;;0.40;0.40;;;;;;;21.84;3.77;101267.97;5156051;27;20270;-70
2021/12/05 11:43:42;;;;;;;0.32;0.32;;;;;;;21.89;3.88;101272.69;5156378;27;20068;-69
2021/12/05 11:46:33;;;;;;;0.52;0.50;;;;;;;21.86;3.80;101279.41;5156483;27;20027;-70
2021/12/05 11:49:02;;;;;;;0.40;0.40;;;;;;;21.84;3.84;101275.31;5155829;27;20041;-70
2021/12/05 11:51:55;;;;;;;0.43;0.40;;;;;;;21.85;3.99;101272.34;5156233;27;20026;-70
2021/12/05 11:54:26;;;;;;;0.40;0.40;;;;;;;21.80;3.84;101277.69;5155802;27;20029;-70
2021/12/05 11:57:11;;;;;;;0.32;0.32;;;;;;;21.82;3.85;101277.41;5156086;27;20030;-69
2021/12/05 11:59:53;;;;;;;0.40;0.40;;;;;;;21.86;3.88;101273.97;5156043;27;20106;-70
2021/12/05 12:02:26;;;;;;;0.50;0.50;;;;;;;21.82;3.85;101271.97;5138127;27;20023;-70
2021/12/05 12:05:13;;;;;;;0.70;0.50;;;;;;;21.84;3.91;101278.84;5155923;27;20034;-69
2021/12/05 12:07:49;;;;;;;0.35;0.30;;;;;;;21.85;3.81;101282.38;5155567;27;20473;-69
2021/12/05 12:10:23;;;;;;;0.40;0.40;;;;;;;21.81;3.74;101273.88;5154902;27;20035;-69
2021/12/05 12:13:03;;;;;;;0.40;0.40;;;;;;;21.85;3.87;101283.22;5155641;27;20540;-69
2021/12/05 12:15:29;;;;;;;0.45;0.45;;;;;;;21.84;3.83;101286.19;5152292;27;20025;-69
2021/12/05 12:17:58;;;;;;;0.40;0.40;;;;;;;21.83;3.79;101288.06;5136018;27;20481;-69
2021/12/05 12:20:25;;;;;;;0.35;0.30;;;;;;;21.83;3.78;101290.78;5135659;27;20053;-69
2021/12/05 12:22:51;;;;;;;0.50;0.50;;;;;;;21.83;3.64;101282.63;5135033;27;20461;-70
2021/12/05 12:25:19;;;;;;;0.52;0.38;;;;;;;21.81;3.77;101287.47;5135026;27;20038;-70
2021/12/05 12:27:45;;;;;;;0.50;0.47;;;;;;;21.80;3.81;101285.00;5134739;27;20463;-70
2021/12/05 12:30:11;;;;;;;0.38;0.38;;;;;;;21.80;3.74;101285.00;5135045;27;20095;-70
2021/12/05 12:32:43;;;;;;;0.30;0.30;;;;;;;21.81;3.78;101275.78;5116520;27;20457;-70
2021/12/05 12:35:11;;;;;;;0.30;0.30;;;;;;;21.79;3.78;101283.34;5116162;27;20524;-70
2021/12/05 12:37:55;;;;;;;0.50;0.43;;;;;;;21.86;3.79;101279.41;5134703;27;20132;-70
2021/12/05 12:40:33;;;;;;;0.30;0.30;;;;;;;21.83;3.79;101268.19;5134862;27;20034;-70
2021/12/05 12:42:59;;;;;;;0.40;0.40;;;;;;;21.80;3.74;101279.56;5134841;27;20415;-70
2021/12/05 12:45:24;;;;;;;0.40;0.32;;;;;;;21.80;3.80;101272.25;5134756;27;20023;-69
2021/12/05 12:47:59;;;;;;;0.32;0.32;;;;;;;21.80;3.84;101274.13;5135002;27;20372;-70
2021/12/05 12:50:34;;;;;;;0.45;0.30;;;;;;;21.79;3.72;101277.91;5134666;28;20055;-69
2021/12/05 12:53:22;;;;;;;0.32;0.32;;;;;;;21.81;3.81;101279.31;5134234;28;20517;-69
2021/12/05 12:55:57;;;;;;;0.50;0.40;;;;;;;21.79;3.83;101284.19;5134555;28;20022;-70
2021/12/05 12:58:57;;;;;;;0.30;0.30;;;;;;;21.89;3.74;101278.13;5134808;28;20028;-70
2021/12/05 13:10:00;;;;;;;0.32;0.32;;;;;;;21.76;3.66;101285.47;5051149;28;20029;-70
2021/12/05 13:10:22;;;;;;;0.30;0.30;;;;;;;21.84;3.70;101286.19;5041920;28;20041;-71
2021/12/05 13:13:21;;;;;;;0.30;0.30;;;;;;;21.86;3.71;101278.59;5051707;28;20111;-70
2021/12/05 13:15:50;;;;;;;0.35;0.30;;;;;;;21.82;3.63;101272.81;4972517;28;20163;-70
2021/12/05 13:18:23;;;;;;;0.40;0.40;;;;;;;21.80;3.61;101279.56;5008738;28;20053;-70
2021/12/05 13:20:56;;;;;;;0.30;0.30;;;;;;;21.79;3.65;101273.28;5011469;28;20073;-70
2021/12/05 13:23:30;;;;;;;0.30;0.30;;;;;;;21.82;3.71;101275.53;5015032;28;20037;-70
2021/12/05 13:26:14;;;;;;;0.30;0.30;;;;;;;21.81;3.63;101292.91;5015057;28;20037;-70
2021/12/05 13:28:47;;;;;;;0.30;0.30;;;;;;;21.80;3.68;101285.84;5014917;28;20062;-70
2021/12/05 13:31:27;;;;;;;0.30;0.30;;;;;;;21.81;3.66;101292.91;5014910;28;20112;-70
2021/12/05 13:34:14;;;;;;;0.32;0.32;;;;;;;21.84;3.70;101295.16;5015484;28;20117;-70
2021/12/05 13:36:39;;;;;;;0.35;0.35;;;;;;;21.78;3.60;101304.28;5018937;28;20126;-70
2021/12/05 13:39:28;;;;;;;0.30;0.30;;;;;;;21.83;3.72;101300.84;5074321;28;20036;-69
2021/12/05 13:42:05;;;;;;;0.30;0.30;;;;;;;21.81;3.60;101292.91;5074512;28;20462;-69
2021/12/05 13:44:58;;;;;;;0.40;0.40;;;;;;;21.85;3.72;101298.72;5074419;28;20071;-70
2021/12/05 13:47:29;;;;;;;0.30;0.30;;;;;;;21.77;3.63;101302.66;5074558;28;20518;-69
2021/12/05 13:49:56;;;;;;;0.30;0.30;;;;;;;21.74;3.68;101300.41;5058239;28;20040;-69
2021/12/05 13:52:33;;;;;;;0.30;0.30;;;;;;;21.79;3.73;101305.94;5098033;27;20035;-69
2021/12/05 13:55:42;;;;;;;0.25;0.25;;;;;;;21.81;3.70;101309.25;5119219;27;20066;-69
2021/12/05 13:58:25;;;;;;;0.30;0.30;;;;;;;21.78;3.70;101301.56;5137210;27;20042;-69
2021/12/05 14:01:06;;;;;;;0.43;0.43;;;;;;;21.81;3.68;101311.97;5137715;27;20026;-69
2021/12/05 14:03:42;;;;;;;0.40;0.40;;;;;;;21.80;3.70;101312.19;5137647;27;20030;-69
2021/12/05 14:06:32;;;;;;;0.30;0.30;;;;;;;21.80;3.79;101312.19;5137553;27;20119;-70
2021/12/05 14:09:11;;;;;;;0.30;0.30;;;;;;;21.77;3.68;101316.25;5137221;27;20415;-70
2021/12/05 14:11:53;;;;;;;0.57;0.30;;;;;;;21.78;3.75;101315.16;5137074;27;20496;-70
2021/12/05 14:14:37;;;;;;;0.40;0.40;;;;;;;21.75;3.73;101319.22;5137585;27;20035;-69
2021/12/05 14:17:06;;;;;;;0.40;0.40;;;;;;;21.76;3.75;101325.47;5146285;27;20074;-70
2021/12/05 14:19:34;;;;;;;0.40;0.40;;;;;;;21.73;3.65;101324.06;5139414;27;20022;-70
2021/12/05 14:22:00;;;;;;;0.40;0.40;;;;;;;21.74;3.70;101325.69;5158060;27;20037;-69
2021/12/05 14:24:28;;;;;;;0.40;0.40;;;;;;;21.75;3.70;101332.00;5158087;27;20390;-69
2021/12/05 14:26:55;;;;;;;0.40;0.40;;;;;;;21.74;3.73;101328.41;5158079;27;20365;-70
2021/12/05 14:29:26;;;;;;;0.28;0.28;;;;;;;21.75;3.68;101340.97;5157930;27;20037;-69
2021/12/05 14:31:57;;;;;;;0.35;0.35;;;;;;;21.76;3.64;101336.34;5157695;27;20460;-70
2021/12/05 14:34:23;;;;;;;0.30;0.30;;;;;;;21.76;3.68;101339.06;5156859;27;20023;-70
2021/12/05 14:37:09;;;;;;;0.60;0.40;;;;;;;21.74;3.59;101339.31;5157629;27;20026;-70
2021/12/05 14:39:59;;;;;;;0.40;0.40;;;;;;;21.77;3.71;101343.44;5157754;27;20019;-70
2021/12/05 14:42:27;;;;;;;0.30;0.30;;;;;;;21.78;3.55;101342.38;5157150;27;20126;-70
2021/12/05 14:44:54;;;;;;;0.40;0.40;;;;;;;21.77;3.66;101340.72;5158038;27;20027;-70
2021/12/05 14:47:25;;;;;;;0.32;0.32;;;;;;;21.73;3.62;101351.28;5158082;27;20075;-70
2021/12/05 14:49:56;;;;;;;0.30;0.30;;;;;;;21.77;3.64;101346.19;5139875;27;20083;-69
2021/12/05 14:52:32;;;;;;;0.40;0.40;;;;;;;21.76;3.63;101345.31;5158796;27;20018;-69
2021/12/05 14:55:01;;;;;;;0.40;0.40;;;;;;;21.75;3.55;101349.13;5159071;27;20014;-70
2021/12/05 14:57:47;;;;;;;0.68;0.40;;;;;;;21.73;3.67;101343.09;5159042;27;20023;-70
2021/12/05 15:00:22;;;;;;;0.40;0.40;;;;;;;21.75;3.63;101343.69;5157111;27;20031;-70
2021/12/05 15:02:47;;;;;;;0.82;0.50;;;;;;;21.71;3.54;101341.69;5158143;27;20023;-69
2021/12/05 15:05:18;;;;;;;0.50;0.50;;;;;;;21.72;3.58;101343.34;5158312;27;20382;-69
2021/12/05 15:07:44;;;;;;;0.47;0.47;;;;;;;21.72;3.62;101337.91;5157537;27;20027;-70
2021/12/05 15:10:09;;;;;;;0.52;0.50;;;;;;;21.74;3.59;101341.22;5157397;27;20398;-70
2021/12/05 15:12:35;;;;;;;0.40;0.40;;;;;;;21.71;3.48;101342.53;5157648;27;20033;-70
2021/12/05 15:15:07;;;;;;;0.50;0.40;;;;;;;21.73;3.57;101339.53;5157789;27;20030;-70
2021/12/05 15:17:34;;;;;;;0.50;0.50;;;;;;;21.72;3.67;101341.44;5138925;27;20051;-70
2021/12/05 15:20:11;;;;;;;0.50;0.50;;;;;;;21.72;3.53;101346.88;5136246;27;20027;-69
2021/12/05 15:22:37;;;;;;;0.52;0.43;;;;;;;21.69;3.62;101347.34;5136152;27;20415;-70
2021/12/05 15:25:05;;;;;;;0.40;0.40;;;;;;;21.72;3.55;101351.50;5135977;27;20068;-70
2021/12/05 15:27:31;;;;;;;1.10;0.40;;;;;;;21.74;3.44;101352.09;5135611;27;20035;-70
2021/12/05 15:29:59;;;;;;;0.50;0.50;;;;;;;21.70;3.53;101348.19;5135594;27;20494;-70
2021/12/05 15:32:26;;;;;;;0.38;0.38;;;;;;;21.73;3.46;101350.41;5135522;27;20528;-69
2021/12/05 15:34:54;;;;;;;0.40;0.40;;;;;;;21.73;3.42;101353.13;5136009;27;20027;-69
2021/12/05 15:37:19;;;;;;;0.40;0.30;;;;;;;21.72;3.59;101354.22;5135457;27;20110;-69
2021/12/05 15:39:45;;;;;;;0.40;0.40;;;;;;;21.71;3.52;101358.84;5135676;27;20015;-69
2021/12/05 15:42:24;;;;;;;0.45;0.45;;;;;;;21.72;3.57;101362.38;5135751;27;20038;-69
2021/12/05 15:44:51;;;;;;;0.50;0.50;;;;;;;21.72;3.46;101362.38;5135143;27;20035;-70
2021/12/05 15:47:24;;;;;;;0.40;0.40;;;;;;;21.68;3.42;101370.19;5135646;27;20472;-70
2021/12/05 15:50:02;;;;;;;0.50;0.50;;;;;;;21.74;3.52;101376.56;5135580;27;20034;-70
2021/12/05 15:52:33;;;;;;;0.65;0.40;;;;;;;21.69;3.50;101381.91;5135353;27;20027;-70
2021/12/05 15:55:00;;;;;;;0.60;0.52;;;;;;;21.68;3.46;101380.22;5135546;27;20050;-70
2021/12/05 15:57:31;;;;;;;0.43;0.43;;;;;;;21.69;3.47;101382.72;5135403;27;20067;-70
2021/12/05 16:00:03;;;;;;;0.50;0.50;;;;;;;21.69;3.37;101387.34;5117446;27;20027;-70
2021/12/05 16:02:28;;;;;;;0.57;0.57;;;;;;;21.69;3.46;101390.06;5117971;27;20027;-70
2021/12/05 16:04:56;;;;;;;0.40;0.40;;;;;;;21.69;3.27;101401.75;5135013;27;20027;-70
2021/12/05 16:07:24;;;;;;;0.63;0.60;;;;;;;21.68;3.39;101388.41;5135195;27;20164;-70
2021/12/05 16:09:49;;;;;;;0.50;0.50;;;;;;;21.70;3.46;101389.00;5117348;27;20429;-70
2021/12/05 16:12:19;;;;;;;0.63;0.50;;;;;;;21.67;3.53;101394.91;5134810;27;20456;-69
2021/12/05 16:14:46;;;;;;;0.50;0.50;;;;;;;21.69;3.39;101395.50;5135361;27;20038;-69
2021/12/05 16:17:16;;;;;;;0.30;0.30;;;;;;;21.71;3.40;101401.53;5149989;27;20039;-70
2021/12/05 16:20:10;;;;;;;0.40;0.40;;;;;;;21.76;3.52;101393.47;5155545;27;20121;-70
2021/12/05 16:22:54;;;;;;;0.50;0.50;;;;;;;21.79;3.47;101401.19;5155717;27;20110;-70
2021/12/05 16:25:20;;;;;;;0.47;0.47;;;;;;;21.72;3.42;101401.28;5155654;27;20105;-70
2021/12/05 16:27:59;;;;;;;0.35;0.35;;;;;;;21.76;3.42;101410.63;5155324;27;20174;-70
2021/12/05 16:30:26;;;;;;;0.50;0.50;;;;;;;21.69;3.41;101414.53;5155623;27;20346;-70
2021/12/05 16:32:52;;;;;;;0.40;0.40;;;;;;;21.72;3.45;101414.06;5155607;27;20038;-70
2021/12/05 16:35:26;;;;;;;0.70;0.55;;;;;;;21.75;3.50;101424.50;5155234;27;20499;-70
2021/12/05 16:37:51;;;;;;;0.40;0.40;;;;;;;21.73;3.33;101422.00;5155254;27;20540;-70
2021/12/05 16:40:17;;;;;;;0.50;0.40;;;;;;;21.73;3.40;101432.03;5119693;27;20045;-70
2021/12/05 16:42:44;;;;;;;0.40;0.40;;;;;;;21.73;3.32;101434.75;5155507;27;20030;-70
2021/12/05 16:45:10;;;;;;;0.50;0.50;;;;;;;21.73;3.22;101437.47;5156465;27;20018;-70
2021/12/05 16:47:35;;;;;;;0.43;0.43;;;;;;;21.70;3.40;101440.69;5137064;27;20030;-70
2021/12/05 16:50:01;;;;;;;0.50;0.50;;;;;;;21.70;3.29;101432.53;5155490;27;20075;-70
2021/12/05 16:52:30;;;;;;;0.40;0.40;;;;;;;21.70;3.38;101429.81;5155138;27;20033;-69
2021/12/05 16:55:03;;;;;;;0.50;0.50;;;;;;;21.72;3.41;101430.41;5154924;27;20023;-69
2021/12/05 16:57:40;;;;;;;0.40;0.40;;;;;;;21.75;3.26;101436.19;5157516;27;20030;-69
2021/12/05 17:00:13;;;;;;;0.60;0.60;;;;;;;21.75;3.38;101447.06;5159656;27;20102;-69
2021/12/05 17:02:44;;;;;;;0.50;0.50;;;;;;;21.73;3.42;101448.38;5159285;27;20023;-69
2021/12/05 17:05:30;;;;;;;0.50;0.50;;;;;;;21.76;3.51;101443.28;5159558;27;20073;-69
2021/12/05 17:08:13;;;;;;;0.30;0.30;;;;;;;21.70;3.33;101446.97;5159541;27;20022;-70
2021/12/05 17:10:44;;;;;;;0.60;0.60;;;;;;;21.68;3.44;101446.38;5159846;27;20133;-70
2021/12/05 17:13:18;;;;;;;0.60;0.52;;;;;;;21.72;3.28;101449.44;5159396;27;20022;-70